Time;durP1;ratioP1;P1;durP2;ratioP2;P2;SDS_P1;SDS_P2;PMS_P1;PMS_P2;Temp;Humidity;BMP_temperature;BMP_pressure;BME280_temperature;BME280_humidity;BME280_pressure;Samples;Min_cycle;Max_cycle;Signal;HPM_P1;HPM_P2
2022/11/01 00:00:48;;;;;;;11.27;3.80;;;18.30;99.90;;;;;;2078002;28;21761;-71
2022/11/01 00:01:50;;;;;;;7.80;3.35;;;18.30;99.90;;;;;;2078736;28;20050;-70
2022/11/01 00:02:50;;;;;;;6.85;3.40;;;18.40;99.90;;;;;;2079112;28;20026;-71
2022/11/01 00:03:51;;;;;;;7.78;3.70;;;18.40;99.90;;;;;;2077961;28;20042;-70
2022/11/01 00:04:51;;;;;;;7.90;3.53;;;18.40;99.90;;;;;;2078437;28;20036;-71
2022/11/01 00:05:52;;;;;;;9.27;4.20;;;18.40;99.90;;;;;;2076482;28;20037;-70
2022/11/01 00:06:55;;;;;;;10.32;3.33;;;18.40;99.90;;;;;;2076378;28;20394;-71
2022/11/01 00:07:55;;;;;;;7.75;3.35;;;18.40;99.90;;;;;;2079202;28;20041;-70
2022/11/01 00:08:56;;;;;;;6.32;3.30;;;18.40;99.90;;;;;;2079616;28;20106;-71
2022/11/01 00:09:56;;;;;;;9.90;3.30;;;18.40;99.90;;;;;;2087027;28;20021;-70
2022/11/01 00:11:05;;;;;;;13.68;4.28;;;18.40;99.90;;;;;;2087042;28;20070;-71
2022/11/01 00:12:05;;;;;;;7.32;3.70;;;18.50;99.90;;;;;;2078935;28;20032;-71
2022/11/01 00:13:06;;;;;;;10.55;3.90;;;18.50;99.90;;;;;;2079610;28;20056;-70
2022/11/01 00:14:07;;;;;;;7.18;3.40;;;18.50;99.90;;;;;;2078440;28;20026;-70
2022/11/01 00:15:07;;;;;;;7.53;3.60;;;18.50;99.90;;;;;;2078602;28;20034;-70
2022/11/01 00:16:08;;;;;;;7.85;3.47;;;18.50;99.90;;;;;;2077239;28;20026;-71
2022/11/01 00:17:09;;;;;;;12.07;4.05;;;18.50;99.90;;;;;;2079098;28;20373;-71
2022/11/01 00:18:09;;;;;;;9.10;3.83;;;18.50;99.90;;;;;;2078915;28;20037;-71
2022/11/01 00:19:10;;;;;;;8.70;4.05;;;18.60;99.90;;;;;;2078886;28;20116;-70
2022/11/01 00:20:10;;;;;;;7.30;3.30;;;18.60;99.90;;;;;;2078139;28;20026;-70
2022/11/01 00:21:12;;;;;;;7.47;3.38;;;18.60;99.90;;;;;;2077500;28;20029;-70
2022/11/01 00:22:12;;;;;;;11.20;3.90;;;18.60;99.90;;;;;;2078307;28;20139;-70
2022/11/01 00:23:13;;;;;;;10.57;3.65;;;18.60;99.90;;;;;;2078408;28;20112;-71
2022/11/01 00:24:14;;;;;;;10.43;3.78;;;18.60;99.90;;;;;;2078207;28;20037;-70
2022/11/01 00:25:14;;;;;;;9.13;3.75;;;18.60;99.90;;;;;;2079703;28;20037;-70
2022/11/01 00:26:20;;;;;;;9.35;3.70;;;18.60;99.90;;;;;;2078044;28;20025;-70
2022/11/01 00:27:20;;;;;;;9.40;3.40;;;18.60;99.90;;;;;;2078378;28;20104;-70
2022/11/01 00:28:21;;;;;;;6.95;3.28;;;18.60;99.90;;;;;;2078753;28;20026;-71
2022/11/01 00:29:22;;;;;;;10.07;4.18;;;18.60;99.90;;;;;;2076364;28;20116;-71
2022/11/01 00:30:22;;;;;;;11.63;3.65;;;18.60;99.90;;;;;;2078157;28;20021;-70
2022/11/01 00:31:24;;;;;;;7.90;3.33;;;18.60;99.90;;;;;;2078165;28;20036;-71
2022/11/01 00:32:24;;;;;;;10.32;4.13;;;18.60;99.90;;;;;;2078507;28;20024;-71
2022/11/01 00:33:25;;;;;;;9.63;3.70;;;18.60;99.90;;;;;;2079113;28;20024;-71
2022/11/01 00:34:25;;;;;;;5.75;3.45;;;18.60;99.90;;;;;;2079916;28;20044;-71
2022/11/01 00:35:26;;;;;;;10.98;4.07;;;18.60;99.90;;;;;;2079808;28;20032;-70
2022/11/01 00:36:27;;;;;;;6.30;3.17;;;18.60;99.90;;;;;;2078421;28;20453;-71
2022/11/01 00:37:28;;;;;;;7.50;3.53;;;18.60;99.90;;;;;;2078270;28;20083;-71
2022/11/01 00:38:28;;;;;;;9.65;4.13;;;18.60;99.90;;;;;;2077873;28;20412;-71
2022/11/01 00:39:29;;;;;;;8.63;3.95;;;18.70;99.90;;;;;;2076582;28;20085;-70
2022/11/01 00:40:29;;;;;;;10.65;3.78;;;18.70;99.90;;;;;;2076864;28;20029;-70
2022/11/01 00:41:30;;;;;;;9.65;3.70;;;18.70;99.90;;;;;;2081363;28;20148;-71
2022/11/01 00:42:30;;;;;;;6.88;3.83;;;18.70;99.90;;;;;;2078277;28;20080;-71
2022/11/01 00:43:32;;;;;;;10.55;3.92;;;18.70;99.90;;;;;;2079869;28;20041;-70
2022/11/01 00:44:32;;;;;;;9.13;3.75;;;18.70;99.90;;;;;;2078715;28;20069;-71
2022/11/01 00:45:33;;;;;;;7.00;3.35;;;18.70;99.90;;;;;;2079104;28;20104;-71
2022/11/01 00:46:33;;;;;;;7.55;3.78;;;18.70;99.90;;;;;;2079669;28;20021;-71
2022/11/01 00:47:34;;;;;;;10.10;3.33;;;18.60;99.90;;;;;;2076767;28;20022;-71
2022/11/01 00:48:34;;;;;;;8.90;3.65;;;18.60;99.90;;;;;;2076973;28;20111;-71
2022/11/01 00:49:35;;;;;;;11.05;4.20;;;18.70;99.90;;;;;;2070580;28;20018;-70
2022/11/01 00:50:36;;;;;;;9.15;3.70;;;18.70;99.90;;;;;;2077636;28;20099;-70
2022/11/01 00:51:36;;;;;;;6.20;3.60;;;18.70;99.90;;;;;;2076940;28;20375;-71
2022/11/01 00:52:37;;;;;;;8.38;3.63;;;18.70;99.90;;;;;;2077732;28;20021;-70
2022/11/01 00:53:37;;;;;;;6.82;3.22;;;18.70;99.90;;;;;;2077299;28;20096;-71
2022/11/01 00:54:38;;;;;;;12.35;3.90;;;18.70;99.90;;;;;;2077312;28;20549;-71
2022/11/01 00:55:39;;;;;;;8.88;3.45;;;18.70;99.90;;;;;;2077691;28;20144;-71
2022/11/01 00:56:40;;;;;;;12.70;3.85;;;18.70;99.90;;;;;;2078577;28;20025;-70
2022/11/01 00:57:42;;;;;;;7.55;3.50;;;18.70;99.90;;;;;;2076847;28;20544;-71
2022/11/01 00:58:43;;;;;;;7.53;3.70;;;18.60;99.90;;;;;;2078056;28;20021;-70
2022/11/01 00:59:43;;;;;;;10.95;4.15;;;18.70;99.90;;;;;;2079260;28;20029;-70
2022/11/01 01:00:44;;;;;;;8.77;3.47;;;18.70;99.90;;;;;;2078957;28;20056;-70
2022/11/01 01:01:44;;;;;;;6.57;3.60;;;18.60;99.90;;;;;;2079548;28;20469;-70
2022/11/01 01:02:45;;;;;;;10.48;4.10;;;18.60;99.90;;;;;;2078911;28;20112;-70
2022/11/01 01:03:45;;;;;;;11.02;4.38;;;18.60;99.90;;;;;;2077796;28;20041;-70
2022/11/01 01:04:47;;;;;;;10.13;3.65;;;18.70;99.90;;;;;;2080287;28;20037;-71
2022/11/01 01:05:49;;;;;;;11.85;4.25;;;18.70;99.90;;;;;;2078555;28;20514;-71
2022/11/01 01:06:50;;;;;;;7.63;3.50;;;18.70;99.90;;;;;;2075862;28;20025;-70
2022/11/01 01:07:50;;;;;;;9.30;3.58;;;18.60;99.90;;;;;;2079126;28;20036;-70
2022/11/01 01:08:51;;;;;;;9.52;3.33;;;18.60;99.90;;;;;;2078172;28;20026;-70
2022/11/01 01:09:51;;;;;;;8.13;3.38;;;18.60;99.90;;;;;;2078493;28;20029;-70
2022/11/01 01:10:52;;;;;;;10.75;3.80;;;18.60;99.90;;;;;;2077273;28;20033;-70
2022/11/01 01:11:53;;;;;;;8.23;3.45;;;18.60;99.90;;;;;;2078453;28;20057;-70
2022/11/01 01:12:53;;;;;;;8.48;4.07;;;18.60;99.90;;;;;;2078625;28;20075;-70
2022/11/01 01:13:54;;;;;;;9.02;3.90;;;18.60;99.90;;;;;;2078680;28;20531;-71
2022/11/01 01:14:55;;;;;;;7.57;3.30;;;18.60;99.90;;;;;;2078814;28;20582;-71
2022/11/01 01:15:56;;;;;;;6.32;3.50;;;18.60;99.90;;;;;;2070354;28;20072;-71
2022/11/01 01:16:56;;;;;;;8.18;3.22;;;18.50;99.90;;;;;;2077245;28;20037;-71
2022/11/01 01:17:57;;;;;;;8.82;3.78;;;18.50;99.90;;;;;;2078332;28;20511;-71
2022/11/01 01:18:57;;;;;;;7.20;3.83;;;18.50;99.90;;;;;;2075954;28;20500;-70
2022/11/01 01:19:58;;;;;;;8.30;3.70;;;18.50;99.90;;;;;;2077054;28;20030;-70
2022/11/01 01:21:00;;;;;;;9.52;3.55;;;18.50;99.90;;;;;;2073968;28;20029;-70
2022/11/01 01:22:01;;;;;;;12.15;4.07;;;18.50;99.90;;;;;;2074923;28;20033;-70
2022/11/01 01:23:02;;;;;;;12.65;4.53;;;18.50;99.90;;;;;;2076673;28;20023;-70
2022/11/01 01:24:02;;;;;;;6.78;3.33;;;18.40;99.90;;;;;;2077953;28;20045;-70
2022/11/01 01:25:03;;;;;;;8.35;3.42;;;18.40;99.90;;;;;;2078330;28;20037;-70
2022/11/01 01:26:06;;;;;;;7.20;3.60;;;18.40;99.90;;;;;;2077154;28;20026;-70
2022/11/01 01:27:06;;;;;;;6.75;3.40;;;18.50;99.90;;;;;;2076905;28;20075;-70
2022/11/01 01:28:07;;;;;;;6.22;3.30;;;18.40;99.90;;;;;;2080646;28;20083;-70
2022/11/01 01:29:07;;;;;;;15.10;3.85;;;18.40;99.90;;;;;;2079078;28;20040;-70
2022/11/01 01:30:08;;;;;;;7.85;3.63;;;18.40;99.90;;;;;;2078888;28;20057;-70
2022/11/01 01:31:09;;;;;;;5.85;3.17;;;18.40;99.90;;;;;;2077897;28;20037;-70
2022/11/01 01:32:14;;;;;;;8.82;3.40;;;18.40;99.90;;;;;;2074965;28;20028;-70
2022/11/01 01:33:14;;;;;;;8.52;3.88;;;18.40;99.90;;;;;;2077029;28;20040;-70
2022/11/01 01:34:15;;;;;;;8.20;3.60;;;18.40;99.90;;;;;;2075867;28;20553;-70
2022/11/01 01:35:16;;;;;;;7.03;3.63;;;18.40;99.90;;;;;;2076914;28;20040;-70
2022/11/01 01:36:17;;;;;;;7.43;3.53;;;18.40;99.90;;;;;;2078868;28;20049;-70
2022/11/01 01:37:19;;;;;;;7.95;3.40;;;18.40;99.90;;;;;;2076919;28;20168;-71
2022/11/01 01:38:19;;;;;;;8.30;3.70;;;18.30;99.90;;;;;;2078641;28;20052;-71
2022/11/01 01:39:20;;;;;;;10.13;4.63;;;18.30;99.90;;;;;;2076356;28;20049;-71
2022/11/01 01:40:20;;;;;;;7.28;3.80;;;18.30;99.90;;;;;;2074432;28;20521;-71
2022/11/01 01:42:41;;;;;;;9.77;3.72;;;18.30;99.90;;;;;;2079101;28;20029;-70
2022/11/01 01:43:43;;;;;;;8.23;4.07;;;18.30;99.90;;;;;;2078519;28;20025;-71
2022/11/01 01:44:48;;;;;;;9.63;3.83;;;18.30;99.90;;;;;;2079302;28;20029;-71
2022/11/01 01:45:49;;;;;;;7.80;3.50;;;18.30;99.90;;;;;;2079392;28;20026;-71
2022/11/01 01:46:50;;;;;;;7.25;3.65;;;18.30;99.90;;;;;;2077267;28;20025;-71
2022/11/01 01:47:53;;;;;;;6.65;3.85;;;18.30;99.90;;;;;;2077923;28;20080;-71
2022/11/01 01:48:58;;;;;;;9.27;4.00;;;18.30;99.90;;;;;;2076476;28;20026;-70
2022/11/01 01:50:05;;;;;;;9.23;4.32;;;18.30;99.90;;;;;;2078439;28;20065;-71
2022/11/01 01:51:11;;;;;;;9.40;4.40;;;18.30;99.90;;;;;;2078030;28;20044;-70
2022/11/01 01:52:13;;;;;;;7.95;3.72;;;18.30;99.90;;;;;;2077978;28;20026;-70
2022/11/01 01:53:25;;;;;;;12.75;4.40;;;18.20;99.90;;;;;;2079758;28;20022;-71
2022/11/01 01:54:26;;;;;;;8.90;3.80;;;18.20;99.90;;;;;;2077751;28;20128;-70
2022/11/01 01:55:52;;;;;;;9.48;4.18;;;18.20;99.90;;;;;;2078114;28;20040;-70
2022/11/01 01:56:53;;;;;;;8.15;4.45;;;18.20;99.90;;;;;;2070124;28;20056;-71
2022/11/01 01:57:55;;;;;;;10.18;3.90;;;18.20;99.90;;;;;;2079266;28;20103;-70
2022/11/01 01:59:02;;;;;;;9.18;4.28;;;18.20;99.90;;;;;;2078247;28;20025;-71
2022/11/01 02:00:04;;;;;;;8.98;4.10;;;18.20;99.90;;;;;;2077464;28;20037;-70
2022/11/01 02:01:05;;;;;;;7.35;3.92;;;18.20;99.90;;;;;;2075859;28;20048;-72
2022/11/01 02:02:06;;;;;;;8.95;3.67;;;18.20;99.90;;;;;;2078147;28;20038;-72
2022/11/01 02:03:07;;;;;;;11.13;4.47;;;18.20;99.90;;;;;;2076130;28;20529;-72
2022/11/01 02:04:27;;;;;;;8.77;4.07;;;18.20;99.90;;;;;;2077490;28;20964;-72
2022/11/01 02:05:52;;;;;;;8.63;3.67;;;18.20;99.90;;;;;;2073605;28;20564;-72
2022/11/01 02:06:53;;;;;;;10.73;4.00;;;18.10;99.90;;;;;;2085425;28;20028;-72
2022/11/01 02:07:55;;;;;;;10.77;4.35;;;18.10;99.90;;;;;;2084577;28;20044;-72
2022/11/01 02:08:59;;;;;;;9.35;4.10;;;18.10;99.90;;;;;;2077674;28;20573;-72
2022/11/01 02:10:00;;;;;;;12.00;4.00;;;18.20;99.90;;;;;;2078328;28;20025;-72
2022/11/01 02:11:03;;;;;;;8.25;3.95;;;18.10;99.90;;;;;;2078276;28;20048;-72
2022/11/01 02:12:04;;;;;;;9.98;4.20;;;18.10;99.90;;;;;;2077253;28;20018;-72
2022/11/01 02:13:12;;;;;;;8.57;4.10;;;18.10;99.90;;;;;;2077942;28;20060;-72
2022/11/01 02:14:16;;;;;;;11.63;3.60;;;18.20;99.90;;;;;;2076532;28;20030;-72
2022/11/01 02:15:21;;;;;;;10.05;3.90;;;18.10;99.90;;;;;;2079545;28;20086;-72
2022/11/01 02:16:36;;;;;;;11.23;4.45;;;18.10;99.90;;;;;;2075885;28;20095;-72
2022/11/01 02:17:53;;;;;;;13.85;4.95;;;18.10;99.90;;;;;;2074562;28;20013;-72
2022/11/01 02:18:59;;;;;;;9.07;4.05;;;18.10;99.90;;;;;;2074892;28;20103;-72
2022/11/01 02:20:19;;;;;;;7.75;3.78;;;18.10;99.90;;;;;;2077566;28;20026;-72
2022/11/01 02:21:52;;;;;;;7.47;3.42;;;18.10;99.90;;;;;;2077406;28;20099;-72
2022/11/01 02:23:34;;;;;;;12.82;4.70;;;18.10;99.90;;;;;;2079447;28;20021;-72
2022/11/01 02:24:56;;;;;;;8.30;3.90;;;18.10;99.90;;;;;;2078209;28;20147;-72
2022/11/01 02:26:17;;;;;;;5.45;3.58;;;18.00;99.90;;;;;;2078136;28;20068;-72
2022/11/01 02:27:39;;;;;;;9.30;3.67;;;18.10;99.90;;;;;;2077592;28;20369;-72
2022/11/01 02:29:04;;;;;;;7.00;4.22;;;18.10;99.90;;;;;;2076607;28;20116;-72
2022/11/01 02:30:19;;;;;;;11.82;3.80;;;18.00;99.90;;;;;;2076970;28;20525;-72
2022/11/01 02:32:00;;;;;;;8.77;4.45;;;18.00;99.90;;;;;;2078086;28;20430;-72
2022/11/01 02:33:12;;;;;;;7.70;3.42;;;18.10;99.90;;;;;;2075980;28;20026;-72
2022/11/01 02:34:17;;;;;;;8.30;3.47;;;18.00;99.90;;;;;;2077512;28;20033;-72
2022/11/01 02:35:40;;;;;;;10.40;3.97;;;18.10;99.90;;;;;;2076566;28;20099;-72
2022/11/01 02:37:09;;;;;;;6.25;3.13;;;18.10;99.90;;;;;;2077335;28;20645;-72
2022/11/01 02:38:27;;;;;;;6.90;4.05;;;18.10;99.90;;;;;;2076633;28;20048;-72
2022/11/01 02:39:33;;;;;;;7.25;3.58;;;18.10;99.90;;;;;;2079306;28;20413;-72
2022/11/01 02:40:53;;;;;;;9.70;4.00;;;18.10;99.90;;;;;;2083045;28;20041;-72
2022/11/01 02:42:19;;;;;;;9.30;4.07;;;18.10;99.90;;;;;;2077165;28;20026;-72
2022/11/01 02:43:25;;;;;;;7.03;3.72;;;18.10;99.90;;;;;;2077703;28;20033;-72
2022/11/01 02:44:31;;;;;;;11.10;3.80;;;18.10;99.90;;;;;;2085158;28;20033;-72
2022/11/01 02:45:36;;;;;;;10.82;4.15;;;18.10;99.90;;;;;;2082136;28;20029;-72
2022/11/01 02:48:09;;;;;;;9.18;3.55;;;18.10;99.90;;;;;;2062865;28;20120;-72
2022/11/01 02:49:13;;;;;;;8.43;3.90;;;18.10;99.90;;;;;;2077965;28;20029;-72
2022/11/01 02:50:14;;;;;;;8.73;3.97;;;18.10;99.90;;;;;;2077523;28;20532;-72
2022/11/01 02:51:18;;;;;;;10.50;4.28;;;18.10;99.90;;;;;;2077992;28;20694;-72
2022/11/01 02:52:25;;;;;;;7.47;3.65;;;18.10;99.90;;;;;;2078223;28;20045;-72
2022/11/01 02:53:26;;;;;;;13.27;4.35;;;18.10;99.90;;;;;;2067764;28;20022;-72
2022/11/01 02:54:31;;;;;;;10.68;3.80;;;18.10;99.90;;;;;;2076452;28;20033;-72
2022/11/01 02:55:34;;;;;;;7.55;4.38;;;18.10;99.90;;;;;;2077666;28;20018;-72
2022/11/01 02:56:38;;;;;;;10.32;4.28;;;18.10;99.90;;;;;;2077733;28;20401;-72
2022/11/01 02:57:40;;;;;;;9.15;4.20;;;18.10;99.90;;;;;;2074787;28;20034;-72
2022/11/01 02:58:41;;;;;;;6.28;3.83;;;18.10;99.90;;;;;;2073018;28;20420;-72
2022/11/01 02:59:47;;;;;;;7.13;3.65;;;18.10;99.90;;;;;;2078317;28;20041;-72
2022/11/01 03:00:47;;;;;;;6.78;3.50;;;18.10;99.90;;;;;;2077462;28;20022;-72
2022/11/01 03:01:59;;;;;;;13.93;3.80;;;18.10;99.90;;;;;;2078349;28;20120;-72
2022/11/01 03:03:18;;;;;;;7.13;3.70;;;18.10;99.90;;;;;;2076358;28;20045;-72
2022/11/01 03:04:18;;;;;;;8.80;3.63;;;18.10;99.90;;;;;;2077847;28;20051;-72
2022/11/01 03:05:38;;;;;;;6.70;3.58;;;18.10;99.90;;;;;;2078318;28;20018;-72
2022/11/01 03:06:45;;;;;;;7.43;3.50;;;18.10;99.90;;;;;;2078522;28;20022;-72
2022/11/01 03:07:51;;;;;;;7.82;3.13;;;18.10;99.90;;;;;;2077658;28;20057;-72
2022/11/01 03:08:59;;;;;;;7.75;3.95;;;18.10;99.90;;;;;;2077516;28;20036;-72
2022/11/01 03:10:00;;;;;;;7.38;3.90;;;18.00;99.90;;;;;;2078262;28;20060;-72
2022/11/01 03:11:09;;;;;;;6.63;3.55;;;18.00;99.90;;;;;;2077871;28;20029;-72
2022/11/01 03:12:21;;;;;;;7.95;3.63;;;18.00;99.90;;;;;;2078090;28;20835;-72
2022/11/01 03:13:40;;;;;;;9.00;3.63;;;18.00;99.90;;;;;;2077927;28;20050;-72
2022/11/01 03:14:52;;;;;;;8.10;3.47;;;18.00;99.90;;;;;;2077175;28;20077;-72
2022/11/01 03:16:02;;;;;;;9.25;3.85;;;18.00;99.90;;;;;;2076333;28;20037;-72
2022/11/01 03:17:12;;;;;;;10.57;3.50;;;18.00;99.90;;;;;;2075117;28;20393;-72
2022/11/01 03:18:20;;;;;;;7.03;3.58;;;18.00;99.90;;;;;;2077101;28;21008;-72
2022/11/01 03:19:45;;;;;;;6.45;4.03;;;18.00;99.90;;;;;;2076597;28;20034;-72
2022/11/01 03:20:55;;;;;;;6.93;4.05;;;18.00;99.90;;;;;;2075591;28;20046;-72
2022/11/01 03:21:59;;;;;;;8.90;3.38;;;18.00;99.90;;;;;;2077224;28;20116;-72
2022/11/01 03:23:02;;;;;;;4.85;3.08;;;18.00;99.90;;;;;;2078135;28;20111;-72
2022/11/01 03:24:21;;;;;;;7.10;3.78;;;18.00;99.90;;;;;;2077654;28;20092;-72
2022/11/01 03:25:51;;;;;;;6.53;3.80;;;18.00;99.90;;;;;;2078758;28;20582;-72
2022/11/01 03:27:00;;;;;;;7.80;3.17;;;17.90;99.90;;;;;;2077179;28;20060;-72
2022/11/01 03:28:44;;;;;;;4.60;3.10;;;17.90;99.90;;;;;;2076077;28;20116;-72
2022/11/01 03:29:55;;;;;;;8.38;3.88;;;17.90;99.90;;;;;;2077327;28;20041;-72
2022/11/01 03:31:08;;;;;;;6.43;3.55;;;17.90;99.90;;;;;;2078033;28;20033;-72
2022/11/01 03:32:09;;;;;;;9.80;4.28;;;17.90;99.90;;;;;;2076332;28;20026;-72
2022/11/01 03:33:13;;;;;;;7.20;3.20;;;17.90;99.90;;;;;;2077589;28;20030;-72
2022/11/01 03:34:17;;;;;;;9.05;3.42;;;17.90;99.90;;;;;;2076154;28;20057;-72
2022/11/01 03:35:22;;;;;;;7.78;3.60;;;17.90;99.90;;;;;;2076936;28;20049;-72
2022/11/01 03:36:28;;;;;;;6.25;3.20;;;17.90;99.90;;;;;;2078261;28;20079;-72
2022/11/01 03:37:31;;;;;;;7.03;3.47;;;17.90;99.90;;;;;;2075542;28;20056;-72
2022/11/01 03:38:36;;;;;;;9.18;3.75;;;17.90;99.90;;;;;;2076462;28;20025;-72
2022/11/01 03:39:45;;;;;;;7.30;3.38;;;17.90;99.90;;;;;;2077150;28;20083;-72
2022/11/01 03:40:52;;;;;;;5.15;3.47;;;17.90;99.90;;;;;;2077063;28;20072;-72
2022/11/01 03:42:00;;;;;;;6.78;3.45;;;17.90;99.90;;;;;;2077780;28;20084;-72
2022/11/01 03:43:05;;;;;;;7.57;3.42;;;17.90;99.90;;;;;;2074814;28;20018;-72
2022/11/01 03:44:06;;;;;;;8.13;3.75;;;17.90;99.90;;;;;;2077769;28;20101;-72
2022/11/01 03:45:10;;;;;;;4.80;3.45;;;17.90;99.90;;;;;;2076464;28;20029;-72
2022/11/01 03:46:14;;;;;;;6.10;3.42;;;17.90;99.90;;;;;;2078229;28;20084;-72
2022/11/01 03:47:14;;;;;;;4.65;3.20;;;17.80;99.90;;;;;;2076428;28;20029;-72
2022/11/01 03:48:15;;;;;;;6.60;3.30;;;17.80;99.90;;;;;;2078737;28;20026;-72
2022/11/01 03:49:19;;;;;;;7.25;3.53;;;17.90;99.90;;;;;;2075287;28;20637;-72
2022/11/01 03:50:23;;;;;;;5.90;3.70;;;17.90;99.90;;;;;;2077847;28;20071;-72
2022/11/01 03:51:23;;;;;;;10.98;4.30;;;17.90;99.90;;;;;;2076382;28;20063;-72
2022/11/01 03:52:24;;;;;;;5.35;3.35;;;17.90;99.90;;;;;;2077023;28;20026;-72
2022/11/01 03:53:24;;;;;;;7.18;3.47;;;17.90;99.90;;;;;;2076307;28;20056;-72
2022/11/01 03:54:26;;;;;;;9.20;3.97;;;17.90;99.90;;;;;;2077848;28;20022;-72
2022/11/01 03:55:27;;;;;;;6.40;3.33;;;17.90;99.90;;;;;;2078262;28;20034;-72
2022/11/01 03:56:27;;;;;;;6.18;3.55;;;17.90;99.90;;;;;;2077554;28;20017;-72
2022/11/01 03:57:28;;;;;;;10.18;3.25;;;17.90;99.90;;;;;;2078539;28;20038;-72
2022/11/01 03:58:40;;;;;;;8.48;3.45;;;17.90;99.90;;;;;;2077361;28;20051;-72
2022/11/01 03:59:41;;;;;;;8.13;3.20;;;17.90;99.90;;;;;;2077866;28;20112;-72
2022/11/01 04:00:44;;;;;;;7.82;3.45;;;17.90;99.90;;;;;;2078669;28;20026;-72
2022/11/01 04:01:44;;;;;;;6.80;2.95;;;17.90;99.90;;;;;;2078256;28;20033;-72
2022/11/01 04:02:45;;;;;;;7.80;3.50;;;17.90;99.90;;;;;;2079230;28;20025;-72
2022/11/01 04:03:46;;;;;;;8.25;3.25;;;17.90;99.90;;;;;;2079987;28;20042;-72
2022/11/01 04:04:46;;;;;;;5.70;3.20;;;17.90;99.90;;;;;;2079873;28;20046;-72
2022/11/01 04:05:47;;;;;;;8.50;3.78;;;17.90;99.90;;;;;;2077586;28;20103;-72
2022/11/01 04:06:49;;;;;;;7.15;3.53;;;17.90;99.90;;;;;;2079586;28;20029;-72
2022/11/01 04:07:50;;;;;;;8.30;3.83;;;17.90;99.90;;;;;;2079217;28;20045;-72
2022/11/01 04:08:51;;;;;;;8.75;3.22;;;17.90;99.90;;;;;;2078707;28;20100;-72
2022/11/01 04:09:52;;;;;;;5.85;3.42;;;17.90;99.90;;;;;;2079588;28;20065;-72
2022/11/01 04:10:52;;;;;;;5.53;2.83;;;17.90;99.90;;;;;;2079288;28;20021;-72
2022/11/01 04:11:53;;;;;;;7.45;3.33;;;17.90;99.90;;;;;;2079934;28;20028;-72
2022/11/01 04:12:54;;;;;;;4.75;3.03;;;17.90;99.90;;;;;;2077872;28;20021;-72
2022/11/01 04:20:31;;;;;;;6.28;3.45;;;17.90;99.90;;;;;;2078541;28;20113;-72
2022/11/01 04:21:15;;;;;;;7.63;3.17;;;17.90;99.90;;;;;;2079415;28;20033;-72
2022/11/01 04:22:16;;;;;;;6.03;3.30;;;17.90;99.90;;;;;;2079060;28;20030;-72
2022/11/01 04:23:17;;;;;;;6.88;3.33;;;17.90;99.90;;;;;;2078802;28;20029;-72
2022/11/01 04:24:19;;;;;;;6.65;3.38;;;17.90;99.90;;;;;;2077895;28;20053;-72
2022/11/01 04:25:20;;;;;;;5.32;3.20;;;17.90;99.90;;;;;;2079206;28;20033;-72
2022/11/01 04:26:22;;;;;;;6.82;3.60;;;17.90;99.90;;;;;;2078721;28;20140;-72
2022/11/01 04:27:22;;;;;;;4.40;2.85;;;17.90;99.90;;;;;;2079151;28;20029;-72
2022/11/01 04:28:23;;;;;;;4.40;2.95;;;17.90;99.90;;;;;;2079097;28;20034;-72
2022/11/01 04:29:23;;;;;;;6.90;3.53;;;17.90;99.90;;;;;;2077050;28;20021;-72
2022/11/01 04:30:25;;;;;;;8.95;3.25;;;18.00;99.90;;;;;;2079800;28;20024;-72
2022/11/01 04:31:31;;;;;;;9.77;3.33;;;18.00;99.90;;;;;;2079902;28;20022;-72
2022/11/01 04:32:32;;;;;;;6.75;3.50;;;18.00;99.90;;;;;;2078758;28;20389;-72
2022/11/01 04:33:32;;;;;;;6.47;3.05;;;18.00;99.90;;;;;;2080130;28;20029;-72
2022/11/01 04:34:42;;;;;;;6.70;3.90;;;18.00;99.90;;;;;;2079741;28;20052;-72
2022/11/01 04:35:43;;;;;;;6.90;3.25;;;18.00;99.90;;;;;;2078417;28;20363;-72
2022/11/01 04:36:43;;;;;;;5.05;3.25;;;18.00;99.90;;;;;;2079484;28;20037;-72
2022/11/01 04:37:45;;;;;;;7.65;3.22;;;18.00;99.90;;;;;;2080801;28;20057;-72
2022/11/01 04:38:49;;;;;;;5.90;3.58;;;18.00;99.90;;;;;;2078487;28;20029;-72
2022/11/01 04:39:49;;;;;;;7.63;3.40;;;18.00;99.90;;;;;;2079805;28;20412;-72
2022/11/01 04:40:50;;;;;;;5.07;2.95;;;18.00;99.90;;;;;;2078605;28;20033;-72
2022/11/01 04:41:50;;;;;;;5.60;2.97;;;18.00;99.90;;;;;;2078663;28;20836;-72
2022/11/01 04:42:52;;;;;;;6.63;3.35;;;18.00;99.90;;;;;;2077265;28;20362;-72
2022/11/01 04:43:55;;;;;;;6.18;2.83;;;18.00;99.90;;;;;;2077922;28;20033;-72
2022/11/01 04:44:56;;;;;;;6.22;3.47;;;18.10;99.90;;;;;;2078709;28;20040;-72
2022/11/01 04:45:56;;;;;;;8.15;3.70;;;18.10;99.90;;;;;;2077577;28;20039;-72
2022/11/01 04:46:57;;;;;;;4.28;2.85;;;18.10;99.90;;;;;;2077340;28;20026;-72
2022/11/01 04:48:05;;;;;;;6.18;3.10;;;18.10;99.90;;;;;;2077742;28;20026;-72
2022/11/01 04:49:05;;;;;;;5.65;2.92;;;18.10;99.90;;;;;;2077845;28;20553;-72
2022/11/01 04:50:06;;;;;;;4.95;2.42;;;18.10;99.90;;;;;;2077472;28;20978;-72
2022/11/01 04:51:08;;;;;;;4.03;3.13;;;18.10;99.90;;;;;;2078852;28;20901;-72
2022/11/01 04:52:08;;;;;;;7.32;3.30;;;18.10;99.90;;;;;;2078756;28;20919;-72
2022/11/01 04:53:09;;;;;;;5.88;2.95;;;18.10;99.90;;;;;;2078391;28;20548;-72
2022/11/01 04:54:09;;;;;;;5.13;3.08;;;18.10;99.90;;;;;;2084480;28;20017;-72
2022/11/01 04:55:10;;;;;;;9.48;3.35;;;18.10;99.90;;;;;;2084856;28;20025;-72
2022/11/01 04:56:12;;;;;;;3.80;2.67;;;18.20;99.90;;;;;;2077687;28;20548;-72
2022/11/01 04:57:21;;;;;;;7.38;3.17;;;18.20;99.90;;;;;;2078475;28;20065;-72
2022/11/01 04:58:22;;;;;;;4.40;2.92;;;18.10;99.90;;;;;;2077758;28;20029;-72
2022/11/01 04:59:22;;;;;;;6.90;3.28;;;18.10;99.90;;;;;;2083482;28;20037;-72
2022/11/01 05:00:24;;;;;;;6.60;3.00;;;18.10;99.90;;;;;;2078424;28;20029;-72
2022/11/01 05:01:25;;;;;;;7.63;3.35;;;18.10;99.90;;;;;;2079391;28;20021;-72
2022/11/01 05:02:26;;;;;;;6.43;3.20;;;18.20;99.90;;;;;;2077310;28;20535;-72
2022/11/01 05:03:26;;;;;;;6.78;2.92;;;18.20;99.90;;;;;;2077851;28;20029;-72
2022/11/01 05:04:27;;;;;;;6.80;2.63;;;18.20;99.90;;;;;;2079342;28;20043;-72
2022/11/01 05:05:27;;;;;;;6.05;2.80;;;18.20;99.90;;;;;;2079337;28;20029;-72
2022/11/01 05:06:28;;;;;;;5.18;2.63;;;18.20;99.90;;;;;;2078243;28;20029;-72
2022/11/01 05:07:29;;;;;;;4.60;2.97;;;18.20;99.90;;;;;;2078472;28;20030;-72
2022/11/01 05:08:29;;;;;;;5.18;2.85;;;18.20;99.90;;;;;;2077571;28;20086;-72
2022/11/01 05:09:30;;;;;;;6.28;3.42;;;18.20;99.90;;;;;;2078469;28;20034;-72
2022/11/01 05:10:31;;;;;;;4.03;2.78;;;18.20;99.90;;;;;;2079028;28;20029;-72
2022/11/01 05:11:32;;;;;;;6.85;3.28;;;18.20;99.90;;;;;;2079450;28;20028;-72
2022/11/01 05:12:33;;;;;;;9.57;3.67;;;18.20;99.90;;;;;;2078283;28;20029;-72
2022/11/01 05:13:34;;;;;;;5.70;3.42;;;18.20;99.90;;;;;;2078748;28;20032;-72
2022/11/01 05:14:35;;;;;;;5.22;3.15;;;18.20;99.90;;;;;;2078398;28;20028;-72
2022/11/01 05:15:36;;;;;;;4.72;2.88;;;18.20;99.90;;;;;;2078594;28;20036;-72
2022/11/01 05:16:37;;;;;;;9.05;2.72;;;18.20;99.90;;;;;;2078544;28;20088;-72
2022/11/01 05:17:40;;;;;;;6.03;2.83;;;18.20;99.90;;;;;;2079195;28;20056;-72
2022/11/01 05:18:41;;;;;;;5.25;2.97;;;18.20;99.90;;;;;;2077683;28;20733;-72
2022/11/01 05:19:42;;;;;;;6.47;2.60;;;18.20;99.90;;;;;;2077801;28;20161;-72
2022/11/01 05:20:42;;;;;;;5.60;3.10;;;18.20;99.90;;;;;;2078632;28;20033;-72
2022/11/01 05:21:43;;;;;;;5.85;2.83;;;18.20;99.90;;;;;;2078938;28;20072;-72
2022/11/01 05:22:43;;;;;;;7.22;2.88;;;18.20;99.90;;;;;;2078877;28;20025;-72
2022/11/01 05:23:47;;;;;;;4.13;2.83;;;18.20;99.90;;;;;;2076822;28;20021;-72
2022/11/01 05:24:47;;;;;;;6.68;2.95;;;18.20;99.90;;;;;;2079926;28;20083;-72
2022/11/01 05:25:48;;;;;;;5.18;2.83;;;18.10;99.90;;;;;;2076736;28;20037;-72
2022/11/01 05:26:49;;;;;;;5.78;2.80;;;18.20;99.90;;;;;;2078425;28;20103;-71
2022/11/01 05:27:50;;;;;;;4.88;2.95;;;18.20;99.90;;;;;;2077914;28;20383;-72
2022/11/01 05:28:50;;;;;;;8.10;3.55;;;18.20;99.90;;;;;;2077870;28;20127;-72
2022/11/01 05:29:51;;;;;;;9.90;2.95;;;18.20;99.90;;;;;;2078609;28;20385;-72
2022/11/01 05:30:51;;;;;;;5.72;3.30;;;18.20;99.90;;;;;;2079110;28;20045;-72
2022/11/01 05:31:52;;;;;;;6.63;2.72;;;18.20;99.90;;;;;;2078489;28;20021;-72
2022/11/01 05:32:58;;;;;;;6.32;2.80;;;18.20;99.90;;;;;;2077925;28;20021;-72
2022/11/01 05:33:59;;;;;;;6.75;2.97;;;18.20;99.90;;;;;;2076226;28;20037;-72
2022/11/01 05:34:59;;;;;;;5.70;2.50;;;18.20;99.90;;;;;;2070923;28;20049;-72
2022/11/01 05:36:00;;;;;;;6.50;3.00;;;18.20;99.90;;;;;;2079297;28;20480;-72
2022/11/01 05:37:01;;;;;;;5.97;3.05;;;18.20;99.90;;;;;;2078053;28;20025;-72
2022/11/01 05:38:03;;;;;;;5.25;2.80;;;18.20;99.90;;;;;;2078177;28;20108;-72
2022/11/01 05:39:04;;;;;;;8.38;3.70;;;18.20;99.90;;;;;;2077854;28;20075;-72
2022/11/01 05:40:05;;;;;;;6.85;3.00;;;18.20;99.90;;;;;;2077428;28;20111;-72
2022/11/01 05:41:05;;;;;;;7.25;3.05;;;18.20;99.90;;;;;;2077293;28;20033;-72
2022/11/01 05:42:06;;;;;;;4.22;2.63;;;18.20;99.90;;;;;;2077184;28;20116;-72